createdAt,value
2023-05-09T00:00:29.195Z,5.30
2023-05-09T00:02:38.306Z,5.20
2023-05-09T00:04:48.381Z,5.10
2023-05-09T00:06:57.665Z,5.20
2023-05-09T00:09:06.398Z,5.20
2023-05-09T00:11:15.300Z,5.20
2023-05-09T00:13:23.992Z,5.30
2023-05-09T00:15:32.483Z,5.20
2023-05-09T00:17:41.713Z,5.10
2023-05-09T00:19:53.032Z,5.10
2023-05-09T00:22:01.862Z,5.10
2023-05-09T00:24:10.077Z,5.10
2023-05-09T00:26:18.528Z,5.00
2023-05-09T00:28:27.645Z,5.10
2023-05-09T00:30:36.578Z,5.10
2023-05-09T00:32:45.247Z,5.10
2023-05-09T00:34:55.373Z,5.20
2023-05-09T00:37:03.972Z,5.20
2023-05-09T00:39:12.581Z,5.10
2023-05-09T00:41:21.572Z,5.20
2023-05-09T00:43:30.012Z,5.10
2023-05-09T00:45:38.656Z,5.00
2023-05-09T00:47:47.900Z,5.00
2023-05-09T00:49:58.513Z,5.00
2023-05-09T00:52:07.311Z,5.10
2023-05-09T00:54:15.663Z,5.10
2023-05-09T00:56:24.471Z,5.10
2023-05-09T00:58:33.581Z,5.00
2023-05-09T01:00:43.061Z,5.00
2023-05-09T01:02:55.290Z,5.00
2023-05-09T01:05:05.882Z,5.00
2023-05-09T01:07:23.028Z,5.00
2023-05-09T01:09:37.878Z,5.10
2023-05-09T01:11:56.501Z,4.90
2023-05-09T01:14:15.802Z,4.90
2023-05-09T01:16:33.210Z,5.10
2023-05-09T01:18:47.516Z,5.00
2023-05-09T01:21:07.783Z,5.10
2023-05-09T01:23:42.423Z,5.10
2023-05-09T01:25:59.172Z,5.00
2023-05-09T01:28:16.057Z,4.90
2023-05-09T01:30:27.777Z,4.80
2023-05-09T01:32:39.696Z,4.90
2023-05-09T01:34:51.244Z,4.90
2023-05-09T01:37:02.392Z,4.90
2023-05-09T01:39:14.106Z,4.80
2023-05-09T01:41:25.010Z,4.70
2023-05-09T01:43:36.523Z,4.80
2023-05-09T01:45:47.191Z,4.70
2023-05-09T01:47:57.511Z,4.70
2023-05-09T01:50:08.292Z,4.80
2023-05-09T01:52:18.979Z,4.80
2023-05-09T01:54:30.168Z,4.60
2023-05-09T01:56:39.582Z,4.60
2023-05-09T01:58:50.301Z,4.60
2023-05-09T02:01:02.207Z,4.60
2023-05-09T02:03:11.113Z,4.50
2023-05-09T02:05:20.539Z,4.40
2023-05-09T02:07:31.400Z,4.50
2023-05-09T02:09:40.744Z,4.40
2023-05-09T02:11:49.260Z,4.40
2023-05-09T02:13:57.699Z,4.40
2023-05-09T02:16:09.405Z,4.40
2023-05-09T02:18:18.889Z,4.40
2023-05-09T02:20:27.382Z,4.40
2023-05-09T02:22:36.544Z,4.30
2023-05-09T02:24:46.325Z,4.40
2023-05-09T02:26:55.908Z,4.40
2023-05-09T02:29:07.259Z,4.50
2023-05-09T02:31:20.918Z,4.60
2023-05-09T02:33:32.143Z,4.60
2023-05-09T02:35:43.316Z,4.60
2023-05-09T02:37:52.304Z,4.50
2023-05-09T02:40:01.644Z,4.60
2023-05-09T02:42:12.039Z,4.70
2023-05-09T02:44:21.154Z,4.70
2023-05-09T02:46:31.417Z,4.80
2023-05-09T02:48:39.930Z,4.80
2023-05-09T02:50:48.696Z,4.70
2023-05-09T02:52:57.388Z,4.80
2023-05-09T02:55:07.566Z,4.80
2023-05-09T02:57:16.061Z,4.80
2023-05-09T02:59:24.350Z,4.80
2023-05-09T03:01:34.752Z,4.80
2023-05-09T03:03:45.420Z,4.90
2023-05-09T03:05:53.851Z,4.60
2023-05-09T03:08:02.505Z,4.60
2023-05-09T03:10:12.356Z,4.80
2023-05-09T03:12:21.212Z,4.80
2023-05-09T03:14:29.773Z,4.90
2023-05-09T03:16:39.914Z,4.80
2023-05-09T03:18:48.361Z,4.70
2023-05-09T03:20:56.937Z,4.70
2023-05-09T03:23:05.670Z,4.90
2023-05-09T03:25:14.488Z,4.90
2023-05-09T03:27:23.329Z,4.90
2023-05-09T03:29:31.751Z,4.90
2023-05-09T03:31:42.116Z,4.90
2023-05-09T03:33:51.085Z,4.90
2023-05-09T03:35:59.790Z,5.10
2023-05-09T03:38:08.645Z,5.10
2023-05-09T03:40:17.372Z,5.20
2023-05-09T03:42:26.012Z,5.20
2023-05-09T03:44:34.722Z,5.20
2023-05-09T03:46:44.971Z,5.30
2023-05-09T03:48:53.476Z,5.40
2023-05-09T03:51:02.914Z,5.40
2023-05-09T03:53:11.675Z,5.50
2023-05-09T03:55:20.483Z,5.50
2023-05-09T03:57:28.920Z,5.60
2023-05-09T03:59:37.574Z,5.60
2023-05-09T04:01:48.025Z,5.70
2023-05-09T04:03:58.034Z,5.70
2023-05-09T04:06:07.327Z,5.80
2023-05-09T04:08:16.064Z,5.80
2023-05-09T04:10:25.491Z,5.90
2023-05-09T04:12:34.224Z,5.90
2023-05-09T04:14:44.552Z,6.00
2023-05-09T04:16:55.840Z,6.00
2023-05-09T04:19:04.589Z,6.10
2023-05-09T04:21:13.226Z,6.10
2023-05-09T04:23:21.577Z,6.20
2023-05-09T04:25:31.250Z,6.30
2023-05-09T04:27:40.052Z,6.40
2023-05-09T04:29:49.538Z,6.40
2023-05-09T04:31:59.765Z,6.50
2023-05-09T04:34:08.451Z,6.60
2023-05-09T04:36:17.386Z,6.60
2023-05-09T04:38:25.914Z,6.60
2023-05-09T04:40:34.896Z,6.70
2023-05-09T04:42:43.812Z,6.80
2023-05-09T04:44:52.982Z,6.90
2023-05-09T04:47:02.822Z,7.00
2023-05-09T04:49:11.150Z,7.10
2023-05-09T04:51:19.975Z,7.20
2023-05-09T04:53:28.802Z,7.30
2023-05-09T04:55:37.670Z,7.50
2023-05-09T04:57:47.527Z,7.60
2023-05-09T04:59:55.940Z,7.80
2023-05-09T05:02:05.964Z,7.90
2023-05-09T05:04:14.665Z,8.00
2023-05-09T05:06:23.009Z,8.10
2023-05-09T05:08:31.438Z,8.20
2023-05-09T05:10:40.188Z,8.30
2023-05-09T05:12:48.609Z,8.40
2023-05-09T05:14:57.373Z,8.50
2023-05-09T05:17:08.302Z,8.60
2023-05-09T05:19:16.871Z,8.70
2023-05-09T05:21:25.658Z,8.80
2023-05-09T05:23:34.291Z,8.90
2023-05-09T05:25:42.931Z,9.20
2023-05-09T05:27:51.710Z,9.30
2023-05-09T05:30:01.262Z,9.50
2023-05-09T05:32:12.206Z,9.50
2023-05-09T05:34:21.538Z,9.60
2023-05-09T05:36:30.401Z,9.80
2023-05-09T05:38:38.618Z,10.00
2023-05-09T05:40:47.672Z,10.10
2023-05-09T05:42:56.333Z,10.20
2023-05-09T05:45:05.682Z,10.30
2023-05-09T05:47:15.894Z,10.40
2023-05-09T05:49:25.416Z,10.50
2023-05-09T05:51:34.264Z,10.60
2023-05-09T05:53:42.855Z,10.70
2023-05-09T05:55:51.634Z,10.90
2023-05-09T05:58:00.371Z,10.90
2023-05-09T06:00:11.394Z,10.90
2023-05-09T06:02:22.006Z,10.90
2023-05-09T06:04:30.466Z,11.00
2023-05-09T06:06:39.395Z,11.10
2023-05-09T06:08:49.913Z,11.10
2023-05-09T06:10:58.615Z,11.20
2023-05-09T06:13:07.627Z,11.20
2023-05-09T06:15:16.191Z,11.30
2023-05-09T06:17:26.380Z,11.30
2023-05-09T06:19:34.702Z,11.40
2023-05-09T06:21:43.378Z,11.50
2023-05-09T06:24:07.837Z,11.50
2023-05-09T06:26:21.122Z,11.60
2023-05-09T06:28:29.673Z,11.60
2023-05-09T06:30:37.884Z,11.70
2023-05-09T06:32:47.845Z,11.80
2023-05-09T06:34:56.346Z,11.90
2023-05-09T06:37:05.082Z,11.90
2023-05-09T06:39:13.767Z,12.10
2023-05-09T06:41:22.714Z,12.20
2023-05-09T06:43:31.318Z,12.20
2023-05-09T06:45:39.595Z,12.30
2023-05-09T06:47:50.290Z,12.40
2023-05-09T06:49:59.059Z,12.40
2023-05-09T06:52:07.263Z,12.40
2023-05-09T06:54:17.284Z,12.60
2023-05-09T06:56:26.985Z,12.70
2023-05-09T06:58:36.414Z,12.80
2023-05-09T07:00:44.951Z,12.80
2023-05-09T07:02:55.961Z,12.80
2023-05-09T07:05:04.475Z,12.90
2023-05-09T07:07:13.302Z,13.00
2023-05-09T07:09:21.979Z,13.10
2023-05-09T07:11:30.843Z,13.20
2023-05-09T07:13:39.302Z,13.20
2023-05-09T07:15:47.747Z,13.40
2023-05-09T07:17:57.906Z,13.50
2023-05-09T07:20:07.641Z,13.50
2023-05-09T07:22:16.392Z,13.50
2023-05-09T07:24:25.143Z,13.60
2023-05-09T07:26:33.664Z,13.80
2023-05-09T07:28:42.335Z,13.70
2023-05-09T07:30:51.367Z,13.80
2023-05-09T07:33:01.939Z,13.80
2023-05-09T07:35:10.908Z,14.10
2023-05-09T07:37:19.933Z,14.10
2023-05-09T07:39:28.645Z,14.30
2023-05-09T07:41:37.085Z,14.20
2023-05-09T07:43:45.819Z,14.10
2023-05-09T07:45:54.522Z,14.10
2023-05-09T07:48:04.708Z,14.20
2023-05-09T07:50:13.372Z,14.50
2023-05-09T07:52:22.565Z,14.50
2023-05-09T07:54:31.131Z,14.60
2023-05-09T07:56:40.043Z,14.70
2023-05-09T07:58:48.918Z,14.90
2023-05-09T08:00:58.733Z,14.80
2023-05-09T08:03:11.327Z,14.80
2023-05-09T08:05:20.788Z,14.80
2023-05-09T08:07:29.390Z,15.00
2023-05-09T08:09:37.855Z,15.10
2023-05-09T08:11:46.658Z,15.10
2023-05-09T08:13:56.170Z,15.30
2023-05-09T08:16:05.183Z,15.30
2023-05-09T08:18:15.430Z,15.40
2023-05-09T08:20:24.578Z,15.20
2023-05-09T08:22:33.632Z,15.50
2023-05-09T08:24:42.244Z,15.40
2023-05-09T08:26:50.936Z,15.40
2023-05-09T08:28:59.874Z,15.60
2023-05-09T08:31:08.468Z,15.70
2023-05-09T08:33:19.289Z,15.60
2023-05-09T08:35:28.225Z,15.50
2023-05-09T08:37:37.127Z,15.90
2023-05-09T08:39:45.940Z,15.90
2023-05-09T13:24:15.728Z,17.50
2023-05-09T13:26:24.587Z,17.50
2023-05-09T13:28:33.406Z,17.90
2023-05-09T13:30:42.036Z,17.90
2023-05-09T13:32:51.658Z,18.00
2023-05-09T13:35:00.593Z,18.20
2023-05-09T13:37:10.621Z,18.40
2023-05-09T13:39:18.844Z,18.50
2023-05-09T13:41:27.372Z,18.60
2023-05-09T13:43:36.020Z,18.80
2023-05-09T13:45:44.369Z,19.10
2023-05-09T13:47:53.381Z,19.10
2023-05-09T13:50:01.891Z,19.00
2023-05-09T13:52:12.231Z,18.60
2023-05-09T13:54:22.020Z,18.30
2023-05-09T13:56:31.092Z,18.10
2023-05-09T13:58:39.615Z,18.50
2023-05-09T14:00:48.293Z,18.90
2023-05-09T14:02:57.104Z,18.60
2023-05-09T14:05:06.350Z,18.00
2023-05-09T14:07:17.141Z,17.70
2023-05-09T14:09:26.316Z,18.00
2023-05-09T14:11:34.974Z,18.40
2023-05-09T14:13:43.483Z,18.70
2023-05-09T14:15:52.190Z,19.00
2023-05-09T14:18:00.995Z,19.20
2023-05-09T14:20:10.675Z,18.90
2023-05-09T14:22:20.696Z,19.00
2023-05-09T14:24:30.854Z,18.50
2023-05-09T14:26:39.570Z,19.00
2023-05-09T14:28:48.350Z,19.10
2023-05-09T14:30:57.485Z,19.10
2023-05-09T14:33:07.127Z,19.00
2023-05-09T14:35:16.326Z,19.30
2023-05-09T14:37:26.794Z,18.80
2023-05-09T14:39:36.987Z,19.20
2023-05-09T14:41:47.974Z,19.00
2023-05-09T14:43:56.757Z,18.80
2023-05-09T14:46:05.708Z,18.80
2023-05-09T14:48:16.076Z,18.70
2023-05-09T14:50:25.929Z,18.80
2023-05-09T14:52:36.493Z,18.50
2023-05-09T14:54:45.532Z,18.50
2023-05-09T14:56:53.938Z,18.20
2023-05-09T14:59:04.208Z,18.00
2023-05-09T15:01:13.463Z,18.10
2023-05-09T15:03:22.187Z,18.40
2023-05-09T15:05:30.745Z,18.70
2023-05-09T15:07:41.150Z,18.50
2023-05-09T15:09:49.474Z,18.70
2023-05-09T15:11:57.799Z,18.70
2023-05-09T15:14:06.546Z,18.60
2023-05-09T15:16:15.266Z,18.80
2023-05-09T15:18:27.015Z,18.80
2023-05-09T15:20:35.679Z,19.00
2023-05-09T15:22:46.360Z,18.80
2023-05-09T15:24:54.789Z,18.50
2023-05-09T15:27:03.214Z,18.70
2023-05-09T15:29:11.723Z,18.80
2023-05-09T15:31:21.785Z,18.90
2023-05-09T15:33:30.277Z,18.60
2023-05-09T15:35:38.708Z,19.00
2023-05-09T15:37:48.861Z,19.00
2023-05-09T15:39:57.589Z,18.50
2023-05-09T15:42:08.934Z,18.70
2023-05-09T15:44:17.378Z,18.30
2023-05-09T15:46:26.373Z,18.20
2023-05-09T15:48:35.083Z,18.20
2023-05-09T15:50:44.326Z,18.50
2023-05-09T15:52:54.648Z,18.20
2023-05-09T15:55:03.449Z,18.30
2023-05-09T15:57:12.321Z,18.30
2023-05-09T15:59:21.312Z,18.30
2023-05-09T16:01:30.104Z,18.40
2023-05-09T16:03:38.804Z,18.50
2023-05-09T16:05:47.996Z,18.30
2023-05-09T16:07:58.052Z,18.00
2023-05-09T16:10:07.407Z,17.90
2023-05-09T16:12:16.210Z,18.10
2023-05-09T16:14:24.566Z,18.30
2023-05-09T16:16:33.437Z,18.40
2023-05-09T16:18:42.796Z,18.30
2023-05-09T16:20:51.519Z,17.60
2023-05-09T16:23:01.323Z,17.80
2023-05-09T16:25:10.419Z,17.70
2023-05-09T16:27:19.368Z,17.80
2023-05-09T16:29:29.104Z,17.80
2023-05-09T16:31:37.761Z,17.60
2023-05-09T16:33:47.185Z,17.70
2023-05-09T16:35:55.918Z,18.00
2023-05-09T16:38:06.119Z,17.90
2023-05-09T16:40:15.814Z,18.00
2023-05-09T16:42:24.417Z,17.80
2023-05-09T16:44:33.182Z,18.10
2023-05-09T16:46:42.249Z,17.80
2023-05-09T16:48:53.249Z,17.40
2023-05-09T16:51:02.129Z,17.40
2023-05-09T16:53:12.767Z,17.30
2023-05-09T16:55:21.737Z,17.40
2023-05-09T16:57:30.610Z,17.20
2023-05-09T16:59:40.059Z,17.30
2023-05-09T17:01:48.760Z,17.70
2023-05-09T17:03:57.710Z,17.70
2023-05-09T17:06:07.185Z,18.20
2023-05-09T17:08:17.335Z,18.80
2023-05-09T17:10:25.713Z,18.70
2023-05-09T17:12:35.269Z,19.10
2023-05-09T17:14:44.108Z,19.10
2023-05-09T17:16:52.672Z,19.10
2023-05-09T17:19:01.746Z,18.60
2023-05-09T17:21:10.399Z,17.60
2023-05-09T17:23:20.316Z,17.50
2023-05-09T17:25:29.513Z,17.00
2023-05-09T17:27:38.354Z,16.70
2023-05-09T17:29:46.733Z,16.20
2023-05-09T17:31:55.212Z,16.00
2023-05-09T17:34:04.253Z,15.70
2023-05-09T17:36:12.642Z,15.80
2023-05-09T17:38:23.000Z,15.80
2023-05-09T17:40:32.012Z,15.90
2023-05-09T17:42:40.938Z,15.80
2023-05-09T17:44:50.625Z,15.60
2023-05-09T17:46:59.904Z,15.30
2023-05-09T17:49:10.328Z,15.20
2023-05-09T17:51:18.754Z,14.80
2023-05-09T17:53:29.766Z,14.60
2023-05-09T17:55:38.917Z,14.60
2023-05-09T17:57:47.678Z,14.70
2023-05-09T17:59:56.271Z,14.90
2023-05-09T18:02:06.112Z,14.80
2023-05-09T18:04:16.363Z,14.80
2023-05-09T18:06:26.181Z,14.50
2023-05-09T18:08:36.751Z,14.20
2023-05-09T18:10:45.627Z,13.90
2023-05-09T18:12:54.164Z,13.80
2023-05-09T18:15:02.753Z,13.50
2023-05-09T18:17:11.201Z,13.50
2023-05-09T18:19:19.546Z,13.40
2023-05-09T18:21:28.886Z,13.20
2023-05-09T18:23:39.482Z,13.10
2023-05-09T18:25:48.593Z,13.10
2023-05-09T18:27:57.742Z,12.90
2023-05-09T18:30:07.698Z,12.80
2023-05-09T18:32:17.635Z,12.70
2023-05-09T18:34:28.154Z,12.70
2023-05-09T18:36:37.352Z,12.60
2023-05-09T18:38:48.253Z,12.50
2023-05-09T18:40:56.796Z,12.50
2023-05-09T18:43:06.729Z,12.40
2023-05-09T18:45:15.935Z,12.30
2023-05-09T18:47:25.225Z,12.20
2023-05-09T18:49:33.708Z,12.10
2023-05-09T18:51:42.048Z,12.00
2023-05-09T18:53:52.474Z,12.00
2023-05-09T18:56:01.977Z,11.90
2023-05-09T18:58:10.393Z,11.80
2023-05-09T19:00:18.877Z,11.80
2023-05-09T19:02:27.527Z,11.70
2023-05-09T19:04:36.313Z,11.70
2023-05-09T19:06:45.541Z,11.60
2023-05-09T19:08:55.930Z,11.60
2023-05-09T19:11:04.628Z,11.50
2023-05-09T19:13:16.084Z,11.40
2023-05-09T19:15:25.210Z,11.40
2023-05-09T19:17:33.996Z,11.30
2023-05-09T19:19:42.449Z,11.30
2023-05-09T19:21:50.913Z,11.20
2023-05-09T19:24:01.355Z,11.20
2023-05-09T19:26:10.715Z,11.10
2023-05-09T19:28:19.449Z,11.00
2023-05-09T19:30:28.259Z,11.00
2023-05-09T19:32:36.936Z,10.90
2023-05-09T19:34:46.158Z,10.90
2023-05-09T19:36:54.774Z,10.80
2023-05-09T19:39:06.038Z,10.80
2023-05-09T19:41:15.361Z,10.80
2023-05-09T19:43:23.786Z,10.80
2023-05-09T19:45:32.433Z,10.80
2023-05-09T19:47:41.735Z,10.70
2023-05-09T19:49:50.422Z,10.60
2023-05-09T19:51:59.079Z,10.60
2023-05-09T19:54:09.344Z,10.50
2023-05-09T19:56:18.363Z,10.50
2023-05-09T19:58:27.664Z,10.50
2023-05-09T20:00:36.301Z,10.50
2023-05-09T20:02:45.066Z,10.50
2023-05-09T20:04:54.449Z,10.40
2023-05-09T20:07:02.959Z,10.40
2023-05-09T20:09:13.106Z,10.40
2023-05-09T20:11:22.574Z,10.30
2023-05-09T20:13:30.965Z,10.30
2023-05-09T20:15:39.612Z,10.30
2023-05-09T20:17:48.524Z,10.30
2023-05-09T20:19:57.643Z,10.20
2023-05-09T20:22:07.075Z,10.20
2023-05-09T20:24:16.852Z,10.20
2023-05-09T20:26:25.765Z,10.20
2023-05-09T20:28:34.946Z,10.20
2023-05-09T20:30:43.621Z,10.10
2023-05-09T20:32:52.946Z,10.10
2023-05-09T20:35:01.640Z,10.10
2023-05-09T20:37:10.396Z,10.10
2023-05-09T20:39:21.011Z,10.00
2023-05-09T20:41:30.365Z,10.00
2023-05-09T20:43:39.782Z,10.00
2023-05-09T20:45:48.674Z,10.10
2023-05-09T20:47:57.423Z,10.10
2023-05-09T20:50:06.517Z,10.00
2023-05-09T20:52:15.067Z,10.00
2023-05-09T20:54:25.996Z,10.00
2023-05-09T20:56:35.638Z,9.90
2023-05-09T20:58:44.192Z,9.90
2023-05-09T21:00:52.760Z,9.90
2023-05-09T21:03:01.356Z,10.00
2023-05-09T21:05:10.531Z,9.90
2023-05-09T21:07:20.251Z,9.90
2023-05-09T21:09:30.048Z,9.90
2023-05-09T21:11:39.772Z,9.90
2023-05-09T21:13:48.507Z,9.90
2023-05-09T21:15:57.820Z,9.90
2023-05-09T21:18:07.073Z,9.90
2023-05-09T21:20:16.620Z,9.90
2023-05-09T21:22:25.167Z,9.80
2023-05-09T21:24:37.044Z,9.80
2023-05-09T21:26:45.325Z,9.80
2023-05-09T21:28:54.189Z,9.80
2023-05-09T21:31:03.501Z,9.80
2023-05-09T21:33:12.346Z,9.80
2023-05-09T21:35:21.240Z,9.80
2023-05-09T21:37:30.282Z,9.90
2023-05-09T21:39:40.113Z,9.80
2023-05-09T21:41:48.635Z,9.80
2023-05-09T21:43:57.653Z,9.80
2023-05-09T21:46:06.554Z,9.80
2023-05-09T21:48:15.068Z,9.80
2023-05-09T21:50:24.267Z,9.70
2023-05-09T21:52:32.785Z,9.70
2023-05-09T21:54:42.487Z,9.80
2023-05-09T21:56:51.119Z,9.80
2023-05-09T21:58:59.965Z,9.70
2023-05-09T22:01:08.531Z,9.70
2023-05-09T22:03:16.933Z,9.70
2023-05-09T22:05:25.913Z,9.70
2023-05-09T22:07:34.326Z,9.60
2023-05-09T22:09:44.617Z,9.60
2023-05-09T22:11:54.038Z,9.70
2023-05-09T22:14:02.718Z,9.60
2023-05-09T22:16:11.198Z,9.50
2023-05-09T22:18:20.156Z,9.50
2023-05-09T22:20:28.888Z,9.50
2023-05-09T22:22:37.614Z,9.50
2023-05-09T22:24:47.938Z,9.60
2023-05-09T22:26:57.106Z,9.50
2023-05-09T22:29:05.845Z,9.50
2023-05-09T22:31:14.318Z,9.40
2023-05-09T22:33:22.687Z,9.40
2023-05-09T22:35:31.584Z,9.40
2023-05-09T22:37:40.694Z,9.50
2023-05-09T22:39:51.171Z,9.40
2023-05-09T22:42:00.073Z,9.30
2023-05-09T22:44:08.837Z,9.30
2023-05-09T22:46:17.759Z,9.30
2023-05-09T22:48:26.351Z,9.30
2023-05-09T22:50:35.405Z,9.30
2023-05-09T22:52:43.839Z,9.30
2023-05-09T22:54:53.827Z,9.40
2023-05-09T22:57:02.833Z,9.30
2023-05-09T22:59:11.564Z,9.30
2023-05-09T23:01:20.265Z,9.30
2023-05-09T23:03:28.899Z,9.20
2023-05-09T23:05:37.364Z,9.30
2023-05-09T23:07:46.975Z,9.30
2023-05-09T23:09:57.546Z,9.30
2023-05-09T23:12:07.352Z,9.30
2023-05-09T23:14:16.313Z,9.20
2023-05-09T23:16:24.822Z,9.20
2023-05-09T23:18:33.309Z,9.20
2023-05-09T23:20:41.636Z,9.20
2023-05-09T23:22:50.601Z,9.10
2023-05-09T23:25:00.960Z,9.10
2023-05-09T23:27:09.926Z,9.10
2023-05-09T23:29:18.459Z,9.10
2023-05-09T23:31:27.224Z,9.10
2023-05-09T23:33:35.768Z,9.10
2023-05-09T23:35:44.071Z,9.00
2023-05-09T23:37:52.626Z,9.10
2023-05-09T23:40:03.882Z,9.00
2023-05-09T23:42:12.636Z,9.00
2023-05-09T23:44:21.320Z,9.00
2023-05-09T23:46:29.721Z,9.00
2023-05-09T23:48:38.039Z,9.00
2023-05-09T23:50:46.953Z,9.00
2023-05-09T23:52:55.697Z,8.90
2023-05-09T23:55:06.872Z,9.00
2023-05-09T23:57:15.134Z,9.00
2023-05-09T23:59:23.427Z,8.90
